Time;durP1;ratioP1;P1;durP2;ratioP2;P2;SDS_P1;SDS_P2;PMS_P1;PMS_P2;Temp;Humidity;BMP_temperature;BMP_pressure;BME280_temperature;BME280_humidity;BME280_pressure;Samples;Min_cycle;Max_cycle;Signal;HPM_P1;HPM_P2
2021/06/16 00:00:18;;;;;;;14.00;5.43;;;13.60;99.90;;;;;;5025232;28;20486;-42
2021/06/16 00:02:45;;;;;;;10.77;6.13;;;13.60;99.90;;;;;;5029839;28;20045;-47
2021/06/16 00:05:20;;;;;;;10.75;5.72;;;13.60;99.90;;;;;;5011914;28;20508;-45
2021/06/16 00:07:49;;;;;;;11.23;6.05;;;13.60;99.90;;;;;;5006082;28;20056;-49
2021/06/16 00:10:18;;;;;;;11.35;5.75;;;13.60;99.90;;;;;;5010408;28;20061;-45
2021/06/16 00:12:47;;;;;;;12.38;6.05;;;13.50;99.90;;;;;;5025028;28;20052;-48
2021/06/16 00:15:37;;;;;;;12.50;5.55;;;13.50;99.90;;;;;;5026466;28;20049;-42
2021/06/16 00:18:09;;;;;;;11.93;5.60;;;13.40;99.90;;;;;;5029035;28;20056;-48
2021/06/16 00:20:38;;;;;;;11.68;5.65;;;13.40;99.90;;;;;;5008227;28;20271;-49
2021/06/16 00:23:07;;;;;;;16.63;7.00;;;13.40;99.90;;;;;;5007125;28;20046;-48
2021/06/16 00:25:34;;;;;;;10.00;5.35;;;13.30;99.90;;;;;;5007604;28;20054;-48
2021/06/16 00:28:01;;;;;;;11.20;5.88;;;13.40;99.90;;;;;;5025112;28;20527;-48
2021/06/16 00:30:31;;;;;;;13.52;5.55;;;13.40;99.90;;;;;;5023952;28;20092;-46
2021/06/16 00:32:58;;;;;;;12.00;5.85;;;13.30;99.90;;;;;;5025800;28;20049;-43
2021/06/16 00:35:28;;;;;;;8.35;5.65;;;13.30;99.90;;;;;;5020102;28;20063;-58
2021/06/16 00:37:58;;;;;;;12.93;6.05;;;13.30;99.90;;;;;;5019978;28;20425;-45
2021/06/16 00:40:27;;;;;;;10.52;6.40;;;13.20;99.90;;;;;;5006339;28;20045;-46
2021/06/16 00:42:56;;;;;;;10.32;6.05;;;13.20;99.90;;;;;;5015482;28;20142;-56
2021/06/16 00:45:24;;;;;;;12.10;5.88;;;13.20;99.90;;;;;;5024319;28;20884;-43
2021/06/16 00:47:55;;;;;;;9.20;6.15;;;13.10;99.90;;;;;;5024141;28;20041;-44
2021/06/16 00:50:27;;;;;;;11.25;6.28;;;13.10;99.90;;;;;;5024010;28;20077;-44
2021/06/16 00:53:03;;;;;;;14.45;6.50;;;13.10;99.90;;;;;;5025643;28;20482;-47
2021/06/16 00:55:37;;;;;;;9.68;5.57;;;13.10;99.90;;;;;;5025843;28;20045;-44
2021/06/16 00:58:05;;;;;;;10.68;5.43;;;13.10;99.90;;;;;;5025769;28;20688;-50
2021/06/16 01:00:42;;;;;;;10.63;5.40;;;13.00;99.90;;;;;;5029037;28;20050;-45
2021/06/16 01:03:26;;;;;;;10.95;6.00;;;13.00;99.90;;;;;;5029241;28;20076;-48
2021/06/16 01:06:18;;;;;;;10.00;5.75;;;13.00;99.90;;;;;;5021469;28;20045;-45
2021/06/16 01:08:59;;;;;;;9.30;5.75;;;12.90;99.90;;;;;;5015775;28;20034;-44
2021/06/16 01:11:30;;;;;;;12.38;5.68;;;12.90;99.90;;;;;;5019183;28;20045;-48
2021/06/16 01:14:09;;;;;;;12.13;6.27;;;12.80;99.90;;;;;;5028750;28;20057;-45
2021/06/16 01:16:47;;;;;;;12.68;6.15;;;12.80;99.90;;;;;;5011317;28;20312;-47
2021/06/16 01:19:31;;;;;;;13.77;6.43;;;12.80;99.90;;;;;;5030665;28;20045;-46
2021/06/16 01:22:02;;;;;;;12.75;6.45;;;12.80;99.90;;;;;;5027876;28;20049;-45
2021/06/16 01:24:32;;;;;;;9.18;6.57;;;12.70;99.90;;;;;;5022290;28;20085;-51
2021/06/16 01:27:03;;;;;;;13.63;6.47;;;12.70;99.90;;;;;;5022803;28;20049;-44
2021/06/16 01:29:37;;;;;;;12.50;6.67;;;12.70;99.90;;;;;;5025885;28;20046;-51
2021/06/16 01:32:10;;;;;;;10.80;6.47;;;12.60;99.90;;;;;;5008209;28;20661;-45
2021/06/16 01:34:39;;;;;;;12.07;6.65;;;12.60;99.90;;;;;;5019654;28;20436;-44
2021/06/16 01:37:06;;;;;;;11.32;6.38;;;12.60;99.90;;;;;;5023769;28;20037;-52
2021/06/16 01:39:38;;;;;;;12.80;6.85;;;12.60;99.90;;;;;;5035803;28;20045;-49
2021/06/16 01:42:12;;;;;;;;;;;12.50;99.90;;;;;;5015808;28;20042;-45
2021/06/16 01:44:40;;;;;;;13.00;7.07;;;12.50;99.90;;;;;;5011817;28;19927;-47
2021/06/16 01:47:07;;;;;;;11.75;7.32;;;12.50;99.90;;;;;;5025436;28;20049;-47
2021/06/16 01:49:39;;;;;;;13.57;7.32;;;12.50;99.90;;;;;;5008379;28;20133;-42
2021/06/16 01:52:05;;;;;;;14.02;6.85;;;12.40;99.90;;;;;;5009607;28;20041;-45
2021/06/16 01:54:38;;;;;;;12.88;7.43;;;12.40;99.90;;;;;;5008647;28;20442;-44
2021/06/16 01:57:08;;;;;;;13.35;6.93;;;12.40;99.90;;;;;;5013569;28;20133;-48
2021/06/16 01:59:41;;;;;;;11.48;6.57;;;12.30;99.90;;;;;;5026605;28;20042;-42
2021/06/16 02:02:08;;;;;;;15.32;7.80;;;12.40;99.90;;;;;;5027227;28;20049;-50
2021/06/16 02:04:40;;;;;;;9.93;7.43;;;12.30;99.90;;;;;;5025471;28;20099;-50
2021/06/16 02:07:19;;;;;;;12.07;7.53;;;12.30;99.90;;;;;;5027294;28;20504;-42
2021/06/16 02:09:50;;;;;;;10.90;6.50;;;12.30;99.90;;;;;;5013764;28;20066;-43
2021/06/16 02:12:21;;;;;;;9.82;7.03;;;12.20;99.90;;;;;;5025018;28;20046;-45
2021/06/16 02:15:03;;;;;;;12.63;6.93;;;12.20;99.90;;;;;;5009302;28;20054;-47
2021/06/16 02:17:39;;;;;;;10.55;7.22;;;12.30;99.90;;;;;;5019401;28;20965;-44
2021/06/16 02:20:08;;;;;;;12.55;7.10;;;12.20;99.90;;;;;;5029752;28;20076;-46
2021/06/16 02:22:37;;;;;;;12.55;7.03;;;12.20;99.90;;;;;;5028036;28;20050;-49
2021/06/16 02:25:06;;;;;;;14.57;6.80;;;12.10;99.90;;;;;;5027825;28;20092;-50
2021/06/16 02:27:35;;;;;;;12.30;7.88;;;12.10;99.90;;;;;;5015476;28;20053;-46
2021/06/16 02:30:05;;;;;;;10.20;7.43;;;12.10;99.90;;;;;;5025948;28;20049;-46
2021/06/16 02:32:36;;;;;;;12.45;7.13;;;12.20;99.90;;;;;;5026525;28;20050;-42
2021/06/16 02:35:04;;;;;;;13.70;7.40;;;12.10;99.90;;;;;;5025696;28;20049;-44
2021/06/16 02:37:31;;;;;;;12.20;7.25;;;12.10;99.90;;;;;;5028430;28;20060;-42
2021/06/16 02:40:02;;;;;;;13.60;7.47;;;12.10;99.90;;;;;;5027813;28;20052;-55
2021/06/16 02:42:32;;;;;;;;;;;12.10;99.90;;;;;;5009879;28;20046;-52
2021/06/16 02:45:01;;;;;;;13.07;7.97;;;12.10;99.90;;;;;;5007952;28;19922;-46
2021/06/16 02:47:32;;;;;;;14.98;8.15;;;12.10;99.90;;;;;;5013441;28;20034;-56
2021/06/16 02:50:03;;;;;;;14.30;7.28;;;12.10;99.90;;;;;;5021803;28;20813;-47
2021/06/16 02:52:32;;;;;;;14.25;7.90;;;12.20;99.90;;;;;;5007678;28;20057;-43
2021/06/16 02:55:04;;;;;;;13.10;8.43;;;12.10;99.90;;;;;;5007716;28;20133;-44
2021/06/16 02:57:33;;;;;;;12.60;7.38;;;12.10;99.90;;;;;;5023794;28;20084;-43
2021/06/16 03:00:06;;;;;;;13.43;8.25;;;12.10;99.90;;;;;;5022437;28;20041;-46
2021/06/16 03:02:36;;;;;;;11.35;7.65;;;12.10;99.90;;;;;;5024909;28;20492;-43
2021/06/16 03:05:05;;;;;;;14.55;8.38;;;12.10;99.90;;;;;;5027400;28;20068;-46
2021/06/16 03:07:33;;;;;;;12.20;7.82;;;12.10;99.90;;;;;;5011466;28;20126;-43
2021/06/16 03:10:04;;;;;;;13.65;7.90;;;12.00;99.90;;;;;;5012913;28;20385;-48
2021/06/16 03:12:31;;;;;;;10.93;7.85;;;12.00;99.90;;;;;;5024765;28;20049;-48
2021/06/16 03:15:00;;;;;;;13.93;8.20;;;12.00;99.90;;;;;;5026877;28;20076;-47
2021/06/16 03:17:29;;;;;;;12.25;7.95;;;12.00;99.90;;;;;;5029632;28;20084;-46
2021/06/16 03:19:58;;;;;;;11.82;7.35;;;12.00;99.90;;;;;;5026080;28;20045;-50
2021/06/16 03:22:29;;;;;;;12.98;8.20;;;12.00;99.90;;;;;;5027285;28;20053;-45
2021/06/16 03:24:58;;;;;;;12.53;7.70;;;12.00;99.90;;;;;;5026681;28;20041;-44
2021/06/16 03:27:26;;;;;;;13.27;9.02;;;12.00;99.90;;;;;;5010124;28;20054;-50
2021/06/16 03:29:56;;;;;;;13.07;8.45;;;12.00;99.90;;;;;;5019439;28;20045;-42
2021/06/16 03:32:29;;;;;;;10.40;8.45;;;12.00;99.90;;;;;;5024812;28;20132;-41
2021/06/16 03:34:57;;;;;;;13.82;9.02;;;12.00;99.90;;;;;;5026326;28;20488;-51
2021/06/16 03:37:30;;;;;;;11.95;8.02;;;12.00;99.90;;;;;;5024118;28;20049;-53
2021/06/16 03:39:57;;;;;;;13.90;8.23;;;12.00;99.90;;;;;;5031018;28;20049;-45
2021/06/16 03:42:24;;;;;;;11.02;8.52;;;12.10;99.90;;;;;;5024825;28;20037;-51
2021/06/16 03:44:52;;;;;;;14.02;8.32;;;12.10;99.90;;;;;;5026595;28;20037;-49
2021/06/16 03:47:28;;;;;;;13.77;8.77;;;12.10;99.90;;;;;;5025588;28;20045;-45
2021/06/16 03:49:58;;;;;;;14.63;8.90;;;12.10;99.90;;;;;;5026274;28;20140;-47
2021/06/16 03:52:25;;;;;;;12.30;8.40;;;12.20;99.90;;;;;;5012339;28;20046;-44
2021/06/16 03:54:53;;;;;;;15.05;9.23;;;12.10;99.90;;;;;;5013108;28;20086;-48
2021/06/16 03:57:21;;;;;;;12.05;8.18;;;12.20;99.90;;;;;;5008827;28;20077;-52
2021/06/16 03:59:49;;;;;;;15.32;8.75;;;12.20;99.90;;;;;;5016644;28;20056;-43
2021/06/16 04:02:19;;;;;;;11.40;7.95;;;12.20;99.90;;;;;;5023681;28;20049;-54
2021/06/16 04:04:46;;;;;;;12.13;9.50;;;12.30;99.90;;;;;;5019413;28;20554;-45
2021/06/16 04:07:18;;;;;;;12.15;8.50;;;12.30;99.90;;;;;;5010548;28;20041;-45
2021/06/16 04:09:50;;;;;;;12.88;8.57;;;12.40;99.90;;;;;;5032391;28;20041;-49
2021/06/16 04:12:20;;;;;;;13.27;8.38;;;12.30;99.90;;;;;;5023362;28;20058;-49
2021/06/16 04:14:50;;;;;;;10.45;9.23;;;12.40;99.90;;;;;;5024613;28;20091;-46
2021/06/16 04:17:17;;;;;;;13.52;8.82;;;12.50;99.90;;;;;;5025159;28;20061;-48
2021/06/16 04:19:47;;;;;;;12.10;9.57;;;12.50;99.90;;;;;;5007696;28;20167;-48
2021/06/16 04:22:16;;;;;;;12.48;9.65;;;12.50;99.90;;;;;;5015945;28;20133;-45
2021/06/16 04:24:45;;;;;;;13.45;8.63;;;12.60;99.90;;;;;;5025912;28;20033;-47
2021/06/16 04:27:12;;;;;;;13.93;9.35;;;12.60;99.90;;;;;;5019982;28;20064;-51
2021/06/16 04:29:40;;;;;;;13.70;9.45;;;12.70;99.90;;;;;;5014112;28;20084;-47
2021/06/16 04:32:11;;;;;;;14.50;8.52;;;12.80;99.90;;;;;;5027101;28;20045;-45
2021/06/16 04:34:38;;;;;;;13.27;8.90;;;12.90;99.90;;;;;;5028240;28;20134;-42
2021/06/16 04:37:05;;;;;;;12.77;8.68;;;12.90;99.90;;;;;;5033223;28;20038;-50
2021/06/16 04:39:37;;;;;;;11.63;8.45;;;13.00;99.90;;;;;;5020948;28;20053;-46
2021/06/16 04:42:06;;;;;;;10.10;8.40;;;13.00;99.90;;;;;;5019670;28;20053;-51
2021/06/16 04:44:35;;;;;;;11.35;8.20;;;13.10;99.90;;;;;;5028767;28;20566;-54
2021/06/16 04:47:04;;;;;;;15.52;8.95;;;13.30;99.90;;;;;;5018331;28;20085;-45
2021/06/16 04:49:32;;;;;;;14.25;8.77;;;13.50;99.90;;;;;;5030298;28;20137;-48
2021/06/16 04:51:59;;;;;;;9.25;7.35;;;13.60;99.90;;;;;;5010204;28;20070;-53
2021/06/16 04:54:28;;;;;;;13.52;9.13;;;13.80;99.90;;;;;;5009235;28;20064;-50
2021/06/16 04:57:04;;;;;;;14.32;9.35;;;13.90;99.90;;;;;;5014416;28;20061;-55
2021/06/16 04:59:35;;;;;;;11.40;8.50;;;14.00;99.90;;;;;;5021882;28;20048;-49
2021/06/16 05:02:05;;;;;;;11.80;8.85;;;14.10;99.90;;;;;;5013016;28;20050;-50
2021/06/16 05:04:31;;;;;;;13.43;8.32;;;14.20;99.90;;;;;;5010316;28;20073;-51
2021/06/16 05:07:03;;;;;;;16.38;8.50;;;14.30;99.90;;;;;;5021331;28;20095;-49
2021/06/16 05:09:32;;;;;;;13.68;8.40;;;14.70;99.90;;;;;;5019927;28;20070;-55
2021/06/16 05:12:04;;;;;;;12.57;8.63;;;15.10;99.90;;;;;;5018874;28;20046;-44
2021/06/16 05:14:37;;;;;;;29.38;21.60;;;15.50;99.90;;;;;;5016620;28;20120;-47
2021/06/16 05:17:04;;;;;;;14.93;10.10;;;15.90;99.40;;;;;;5022469;28;20046;-56
2021/06/16 05:19:37;;;;;;;93.82;81.65;;;16.20;98.90;;;;;;5026965;28;20483;-49
2021/06/16 05:22:11;;;;;;;50.80;43.72;;;16.40;97.90;;;;;;5029020;28;20128;-47
2021/06/16 05:24:41;;;;;;;21.45;15.23;;;16.80;97.20;;;;;;5021673;28;20351;-59
2021/06/16 05:27:07;;;;;;;12.23;8.68;;;16.90;96.80;;;;;;5023276;28;20928;-51
2021/06/16 05:29:36;;;;;;;13.50;8.02;;;17.00;96.10;;;;;;5029242;28;20492;-46
2021/06/16 05:32:07;;;;;;;20.10;13.07;;;17.10;96.40;;;;;;5035668;28;20045;-51
2021/06/16 05:34:37;;;;;;;9.82;5.88;;;17.30;95.20;;;;;;5017835;28;20794;-49
2021/06/16 05:37:07;;;;;;;14.38;6.60;;;17.40;94.60;;;;;;5028002;28;20486;-48
2021/06/16 05:39:38;;;;;;;13.55;8.15;;;17.50;95.30;;;;;;5010599;28;20490;-53
2021/06/16 05:42:07;;;;;;;50.72;45.22;;;17.70;95.30;;;;;;5021339;28;20393;-51
2021/06/16 05:44:38;;;;;;;14.73;8.77;;;17.90;94.70;;;;;;5021445;28;20043;-52
2021/06/16 05:47:07;;;;;;;26.50;22.55;;;18.10;94.70;;;;;;5017115;28;20045;-55
2021/06/16 05:49:39;;;;;;;11.95;6.18;;;18.40;94.20;;;;;;5030462;28;20037;-50
2021/06/16 05:52:08;;;;;;;14.20;8.63;;;18.70;94.00;;;;;;5025338;28;20034;-52
2021/06/16 05:54:40;;;;;;;9.77;5.38;;;19.00;93.20;;;;;;5017907;28;20037;-50
2021/06/16 05:57:07;;;;;;;9.65;5.20;;;19.10;92.40;;;;;;5028755;28;20064;-58
2021/06/16 05:59:38;;;;;;;10.95;6.00;;;19.10;92.10;;;;;;5029305;28;20053;-53
2021/06/16 06:02:07;;;;;;;12.15;6.25;;;19.10;91.40;;;;;;5028182;28;20152;-52
2021/06/16 06:04:39;;;;;;;11.20;5.90;;;19.00;91.40;;;;;;5013976;28;20061;-52
2021/06/16 06:07:10;;;;;;;10.63;6.15;;;19.30;91.10;;;;;;5028467;28;20133;-50
2021/06/16 06:09:40;;;;;;;9.57;5.38;;;19.50;91.00;;;;;;5009078;28;20694;-50
2021/06/16 06:12:09;;;;;;;11.40;5.10;;;19.60;89.80;;;;;;5028192;28;20050;-51
2021/06/16 06:14:36;;;;;;;13.05;6.72;;;19.80;90.70;;;;;;5023623;28;20096;-49
2021/06/16 06:17:08;;;;;;;24.98;19.63;;;20.10;91.10;;;;;;5023218;28;20049;-48
2021/06/16 06:19:41;;;;;;;;;;;20.50;90.60;;;;;;5028787;28;20072;-50
2021/06/16 06:22:09;;;;;;;36.05;31.13;;;20.60;85.70;;;;;;5028277;28;19933;-52
2021/06/16 06:24:38;;;;;;;10.57;6.82;;;20.80;90.10;;;;;;5010413;28;20049;-47
2021/06/16 06:27:07;;;;;;;8.23;5.57;;;20.90;86.80;;;;;;5009914;28;20134;-50
2021/06/16 06:29:33;;;;;;;13.95;8.13;;;21.00;87.10;;;;;;5017038;28;20037;-57
2021/06/16 06:32:06;;;;;;;7.80;5.80;;;21.00;87.00;;;;;;5013284;28;20169;-47
2021/06/16 06:34:34;;;;;;;13.27;7.68;;;21.40;87.10;;;;;;5014790;28;20045;-49
2021/06/16 06:37:01;;;;;;;15.93;9.55;;;21.80;86.30;;;;;;5022397;28;20393;-49
2021/06/16 06:39:35;;;;;;;10.82;6.95;;;21.70;85.00;;;;;;5023187;28;20049;-51
2021/06/16 06:42:01;;;;;;;19.85;14.30;;;21.70;80.20;;;;;;5028248;28;20041;-47
2021/06/16 06:44:27;;;;;;;11.35;7.70;;;21.70;79.70;;;;;;5021004;28;20133;-51
2021/06/16 06:46:56;;;;;;;14.07;8.85;;;21.70;79.90;;;;;;5015616;28;20060;-54
2021/06/16 06:49:23;;;;;;;15.85;11.25;;;21.70;81.30;;;;;;5026940;28;20053;-46
2021/06/16 06:51:52;;;;;;;10.35;5.07;;;21.60;81.50;;;;;;5029622;28;20444;-45
2021/06/16 06:54:18;;;;;;;14.73;8.25;;;21.80;81.30;;;;;;5013816;28;20046;-52
2021/06/16 06:56:44;;;;;;;10.65;5.95;;;21.80;81.00;;;;;;5025553;28;20045;-57
2021/06/16 06:59:13;;;;;;;10.60;6.45;;;22.00;80.80;;;;;;5017746;28;20088;-47
2021/06/16 07:01:39;;;;;;;13.00;5.15;;;22.20;80.30;;;;;;5016836;28;20049;-55
2021/06/16 07:04:06;;;;;;;8.48;4.63;;;22.30;76.30;;;;;;5023757;28;20152;-51
2021/06/16 07:06:34;;;;;;;11.38;7.18;;;22.30;74.80;;;;;;5013984;28;20041;-47
2021/06/16 07:09:03;;;;;;;8.43;5.22;;;22.40;77.10;;;;;;5017606;28;20470;-45
2021/06/16 07:11:34;;;;;;;7.90;4.55;;;22.30;77.60;;;;;;5020696;28;20041;-45
2021/06/16 07:14:03;;;;;;;11.88;4.93;;;22.40;77.40;;;;;;5022023;28;20045;-57
2021/06/16 07:16:32;;;;;;;28.80;24.50;;;22.40;79.40;;;;;;5024139;28;20045;-45
2021/06/16 07:18:58;;;;;;;13.85;9.50;;;22.60;78.10;;;;;;5024523;28;20076;-44
2021/06/16 07:21:25;;;;;;;8.13;4.30;;;22.80;78.10;;;;;;5026089;28;20069;-49
2021/06/16 07:23:51;;;;;;;9.20;4.28;;;23.00;78.10;;;;;;5026205;28;20064;-48
2021/06/16 07:26:20;;;;;;;13.10;4.38;;;23.20;79.30;;;;;;5025168;28;20041;-50
2021/06/16 07:28:46;;;;;;;13.52;4.53;;;23.40;76.30;;;;;;5027095;28;20394;-47
2021/06/16 07:31:33;;;;;;;10.57;4.93;;;23.50;76.70;;;;;;5025081;28;20528;-48
2021/06/16 07:33:59;;;;;;;13.77;4.68;;;23.50;77.10;;;;;;5026338;28;20050;-50
2021/06/16 07:36:28;;;;;;;8.05;5.20;;;23.50;71.70;;;;;;5028937;28;20100;-52
2021/06/16 07:38:54;;;;;;;10.68;4.82;;;23.60;72.20;;;;;;5031390;28;20048;-64
2021/06/16 07:41:23;;;;;;;11.57;4.78;;;23.40;70.10;;;;;;5023123;28;20046;-50
2021/06/16 07:43:49;;;;;;;9.50;4.85;;;23.70;72.20;;;;;;5032961;28;20041;-51
2021/06/16 07:46:22;;;;;;;10.82;4.60;;;23.70;72.60;;;;;;5026226;28;20045;-48
2021/06/16 07:48:50;;;;;;;8.00;4.00;;;23.80;70.20;;;;;;5026162;28;20045;-48
2021/06/16 07:51:17;;;;;;;9.25;3.80;;;24.10;71.50;;;;;;5025895;28;20832;-46
2021/06/16 07:53:43;;;;;;;7.80;4.25;;;24.30;71.10;;;;;;5025879;28;20057;-46
2021/06/16 07:56:12;;;;;;;8.80;4.35;;;24.40;69.90;;;;;;5025001;28;20049;-48
2021/06/16 07:58:38;;;;;;;10.70;4.07;;;24.50;68.10;;;;;;5024253;28;20103;-50
2021/06/16 08:01:05;;;;;;;9.73;4.53;;;24.60;69.50;;;;;;5025786;28;20042;-50
2021/06/16 08:03:31;;;;;;;10.85;4.40;;;24.80;68.50;;;;;;5029859;28;20048;-50
2021/06/16 08:05:59;;;;;;;6.68;3.75;;;24.90;68.30;;;;;;5025307;28;20076;-59
2021/06/16 08:08:26;;;;;;;8.65;3.95;;;25.00;65.70;;;;;;5026839;28;20061;-56
2021/06/16 08:10:52;;;;;;;7.57;3.83;;;25.10;65.00;;;;;;5026182;28;20135;-46
2021/06/16 08:13:19;;;;;;;8.68;4.18;;;25.30;63.10;;;;;;5025388;28;20045;-49
2021/06/16 08:15:45;;;;;;;8.82;4.00;;;25.40;60.90;;;;;;5024581;28;20041;-51
2021/06/16 08:18:12;;;;;;;10.55;4.05;;;25.40;61.90;;;;;;5023842;28;20453;-50
2021/06/16 08:20:39;;;;;;;6.13;3.03;;;25.30;61.00;;;;;;5024675;28;20041;-47
2021/06/16 08:23:08;;;;;;;8.07;3.83;;;25.50;60.10;;;;;;5026687;28;20048;-48
2021/06/16 08:25:35;;;;;;;8.05;3.53;;;25.80;60.90;;;;;;5024029;28;20048;-66
2021/06/16 08:28:02;;;;;;;9.95;3.50;;;26.00;60.10;;;;;;5020635;28;20060;-55
2021/06/16 08:30:29;;;;;;;8.88;3.08;;;26.00;59.00;;;;;;5031789;28;20045;-50
2021/06/16 08:32:57;;;;;;;10.82;3.45;;;26.40;58.00;;;;;;5033241;28;20030;-49
2021/06/16 08:35:23;;;;;;;6.85;3.25;;;26.60;57.20;;;;;;5024193;28;20591;-47
2021/06/16 08:37:50;;;;;;;6.63;3.25;;;26.70;55.80;;;;;;5026032;28;20136;-46
2021/06/16 08:40:17;;;;;;;8.25;2.85;;;26.80;55.90;;;;;;5030259;28;20065;-48
2021/06/16 08:42:49;;;;;;;6.50;3.17;;;26.80;54.50;;;;;;5025013;28;20047;-51
2021/06/16 08:45:19;;;;;;;8.02;2.70;;;27.20;53.00;;;;;;5025424;28;20156;-53
2021/06/16 08:47:50;;;;;;;7.97;3.08;;;27.40;52.80;;;;;;5023719;28;20481;-47
2021/06/16 08:50:17;;;;;;;9.23;3.17;;;27.30;48.00;;;;;;5026162;28;20038;-48
2021/06/16 08:52:47;;;;;;;6.03;2.45;;;27.00;50.90;;;;;;5025725;28;20045;-47
2021/06/16 08:55:17;;;;;;;;;;;27.00;49.20;;;;;;5026753;28;20061;-49
2021/06/16 08:57:44;;;;;;;6.50;2.03;;;26.80;48.50;;;;;;5024584;28;19921;-52
2021/06/16 09:00:12;;;;;;;10.05;2.70;;;26.90;49.60;;;;;;5026073;28;20516;-53
2021/06/16 09:02:38;;;;;;;8.18;4.45;;;26.90;48.80;;;;;;5025722;28;20045;-56
2021/06/16 09:05:05;;;;;;;10.00;2.80;;;27.40;51.20;;;;;;5026312;28;20042;-55
2021/06/16 09:07:33;;;;;;;8.05;2.40;;;27.60;49.20;;;;;;5023366;28;20042;-49
2021/06/16 09:10:10;;;;;;;8.25;2.90;;;27.70;50.90;;;;;;5024966;28;20773;-53
2021/06/16 09:12:43;;;;;;;6.70;2.35;;;27.50;47.90;;;;;;5023733;28;20045;-47
2021/06/16 09:15:15;;;;;;;6.88;2.40;;;27.60;47.10;;;;;;5019401;28;20077;-51
2021/06/16 09:17:41;;;;;;;5.30;2.58;;;27.60;47.40;;;;;;5025189;28;20052;-43
2021/06/16 09:20:11;;;;;;;5.25;2.30;;;27.70;46.20;;;;;;5026686;28;20050;-49
2021/06/16 09:22:40;;;;;;;7.10;2.85;;;27.80;46.70;;;;;;5023996;28;20046;-44
2021/06/16 09:25:10;;;;;;;9.38;2.42;;;28.00;47.90;;;;;;5031563;28;20042;-49
2021/06/16 09:27:50;;;;;;;6.20;1.80;;;28.40;48.10;;;;;;5027637;28;20046;-47
2021/06/16 09:30:23;;;;;;;9.30;3.53;;;28.60;48.60;;;;;;5009053;28;20759;-58
2021/06/16 09:32:58;;;;;;;7.63;4.05;;;28.80;47.80;;;;;;5027715;28;20045;-50
2021/06/16 09:35:28;;;;;;;7.97;2.60;;;28.90;44.20;;;;;;5032969;28;20041;-54
2021/06/16 09:37:59;;;;;;;5.97;2.25;;;29.10;43.00;;;;;;5027677;28;20046;-48
2021/06/16 09:40:35;;;;;;;6.15;2.08;;;29.20;43.40;;;;;;5028863;28;20072;-53
2021/06/16 09:43:08;;;;;;;5.47;2.00;;;29.40;44.40;;;;;;5028791;28;20053;-47
2021/06/16 09:45:36;;;;;;;7.10;2.78;;;29.20;43.00;;;;;;5028833;28;20110;-51
2021/06/16 09:48:23;;;;;;;5.78;2.20;;;29.10;40.00;;;;;;5027501;28;20060;-48
2021/06/16 09:51:07;;;;;;;6.68;2.28;;;29.30;40.00;;;;;;5029094;28;20048;-47
2021/06/16 09:53:33;;;;;;;4.25;1.80;;;29.20;39.70;;;;;;5029947;28;20072;-47
2021/06/16 09:56:15;;;;;;;6.32;2.17;;;29.20;40.10;;;;;;5029107;28;20048;-51
2021/06/16 09:58:41;;;;;;;4.45;1.73;;;29.50;42.40;;;;;;5027803;28;20081;-49
2021/06/16 10:01:11;;;;;;;6.25;2.42;;;29.60;41.40;;;;;;5027337;28;20045;-44
2021/06/16 10:03:40;;;;;;;6.93;2.60;;;29.80;41.60;;;;;;5027189;28;20450;-47
2021/06/16 10:06:16;;;;;;;5.53;1.92;;;29.60;40.00;;;;;;5027652;28;20052;-46
2021/06/16 10:08:47;;;;;;;5.55;2.03;;;29.60;39.40;;;;;;5027815;28;20052;-44
2021/06/16 10:11:26;;;;;;;4.78;1.77;;;29.60;39.70;;;;;;5027740;28;20053;-47
2021/06/16 10:13:52;;;;;;;5.18;2.35;;;29.70;41.30;;;;;;5026729;28;21682;-49
2021/06/16 10:16:18;;;;;;;8.15;2.75;;;29.70;40.90;;;;;;5027177;28;20045;-50
2021/06/16 10:18:47;;;;;;;5.68;1.92;;;30.10;41.00;;;;;;5027516;28;20634;-54
2021/06/16 10:21:20;;;;;;;7.60;2.15;;;30.40;41.30;;;;;;5027854;28;20088;-45
2021/06/16 10:23:46;;;;;;;8.38;2.75;;;30.40;39.70;;;;;;5016892;28;20099;-53
2021/06/16 10:26:25;;;;;;;7.72;3.95;;;30.60;40.50;;;;;;5027088;28;20046;-51
2021/06/16 10:29:04;;;;;;;5.70;2.08;;;31.00;39.40;;;;;;5026466;28;20080;-52
2021/06/16 10:31:36;;;;;;;7.05;3.25;;;31.20;39.00;;;;;;5020915;28;20646;-52
2021/06/16 10:34:04;;;;;;;8.55;4.03;;;31.10;37.90;;;;;;5027295;28;20045;-51
2021/06/16 10:36:32;;;;;;;6.57;4.05;;;31.00;38.80;;;;;;5045421;28;20049;-53
2021/06/16 10:38:58;;;;;;;6.22;2.67;;;31.00;38.60;;;;;;5025520;28;20041;-50
2021/06/16 10:41:49;;;;;;;6.10;1.98;;;31.20;39.30;;;;;;5022091;28;20047;-51
2021/06/16 10:44:21;;;;;;;4.80;2.28;;;31.10;37.00;;;;;;5023888;28;20125;-51
2021/06/16 10:46:57;;;;;;;5.93;3.05;;;31.30;39.00;;;;;;5018514;28;20391;-50
2021/06/16 10:52:15;;;;;;;10.20;3.65;;;30.80;36.50;;;;;;5021779;28;20045;-50
2021/06/16 10:54:54;;;;;;;6.28;2.17;;;31.00;36.90;;;;;;5023781;28;20045;-48
2021/06/16 10:57:22;;;;;;;6.35;2.70;;;30.90;39.00;;;;;;5025250;28;20048;-49
2021/06/16 10:59:51;;;;;;;4.45;2.15;;;30.70;38.00;;;;;;5025946;28;20132;-50
2021/06/16 11:02:31;;;;;;;;;;;30.90;37.80;;;;;;5026103;28;20052;-52
2021/06/16 11:05:28;;;;;;;6.83;1.87;;;31.10;38.90;;;;;;5017555;28;19975;-50
2021/06/16 11:07:55;;;;;;;7.25;2.10;;;31.30;36.70;;;;;;5021541;28;20131;-50
2021/06/16 11:10:24;;;;;;;6.07;3.25;;;31.20;37.00;;;;;;5020276;28;20068;-50
2021/06/16 11:12:54;;;;;;;6.75;3.15;;;31.30;36.00;;;;;;5020874;28;20127;-47
2021/06/16 11:15:28;;;;;;;5.85;2.22;;;31.40;36.40;;;;;;5023364;28;20040;-48
2021/06/16 11:17:57;;;;;;;9.73;6.78;;;30.90;36.30;;;;;;5014043;28;20049;-55
2021/06/16 11:20:41;;;;;;;9.63;7.82;;;31.20;37.70;;;;;;5014522;28;20525;-48
2021/06/16 11:23:21;;;;;;;5.45;2.03;;;31.40;37.90;;;;;;5015486;28;20042;-55
2021/06/16 11:25:49;;;;;;;8.27;3.33;;;31.40;36.20;;;;;;5011887;28;20049;-54
2021/06/16 11:28:19;;;;;;;5.65;3.15;;;31.50;36.70;;;;;;5017241;28;20049;-51
2021/06/16 11:30:55;;;;;;;5.82;2.78;;;31.30;35.40;;;;;;5010742;28;20076;-54
2021/06/16 11:33:22;;;;;;;6.88;2.05;;;31.40;37.10;;;;;;5025886;28;20443;-49
2021/06/16 11:35:51;;;;;;;5.70;1.95;;;31.50;37.50;;;;;;5021352;28;21272;-51
2021/06/16 11:38:17;;;;;;;5.32;2.10;;;31.50;36.30;;;;;;5026159;28;20087;-52
2021/06/16 11:41:04;;;;;;;5.40;1.80;;;31.60;37.00;;;;;;5008554;28;20056;-51
2021/06/16 11:43:37;;;;;;;6.40;2.25;;;31.80;36.60;;;;;;5019508;28;20052;-52
2021/06/16 11:46:21;;;;;;;;;;;31.90;37.00;;;;;;5018679;28;20073;-50
2021/06/16 11:49:24;;;;;;;5.57;2.05;;;32.00;36.40;;;;;;5031592;28;19957;-58
2021/06/16 11:51:56;;;;;;;5.45;2.25;;;32.40;37.10;;;;;;5002604;28;20050;-46
2021/06/16 11:54:29;;;;;;;9.20;2.17;;;32.60;36.50;;;;;;5003446;28;20042;-48
2021/06/16 11:57:01;;;;;;;7.07;1.90;;;32.50;37.80;;;;;;5002613;28;20052;-49
2021/06/16 11:59:33;;;;;;;4.97;2.15;;;32.50;37.30;;;;;;5006423;28;20069;-52
2021/06/16 12:02:12;;;;;;;5.65;1.85;;;32.50;36.40;;;;;;5007187;28;20084;-49
2021/06/16 12:04:44;;;;;;;6.30;2.10;;;32.30;37.50;;;;;;5003306;28;20116;-51
2021/06/16 12:07:34;;;;;;;4.32;1.60;;;32.00;35.20;;;;;;5003526;28;20049;-49
2021/06/16 12:10:04;;;;;;;5.00;1.90;;;32.10;37.50;;;;;;5003178;28;20069;-50
2021/06/16 12:13:03;;;;;;;5.22;1.80;;;32.20;36.60;;;;;;5003533;28;20057;-48
2021/06/16 12:15:37;;;;;;;4.70;1.52;;;32.40;35.80;;;;;;4987320;28;20375;-54
2021/06/16 12:18:08;;;;;;;6.20;2.03;;;32.30;36.70;;;;;;5002873;28;20046;-49
2021/06/16 12:20:59;;;;;;;6.28;1.88;;;32.50;38.00;;;;;;5001524;28;20041;-57
2021/06/16 12:23:46;;;;;;;4.53;1.90;;;32.30;37.30;;;;;;5002666;28;20045;-48
2021/06/16 12:26:21;;;;;;;6.35;2.25;;;32.10;36.20;;;;;;5006934;28;20181;-48
2021/06/16 12:28:55;;;;;;;7.53;2.25;;;32.50;37.40;;;;;;5006256;28;20151;-46
2021/06/16 12:31:27;;;;;;;14.43;12.85;;;32.40;36.20;;;;;;5015795;28;20042;-47
2021/06/16 12:36:25;;;;;;;5.95;2.50;;;32.40;37.20;;;;;;5022258;28;20067;-45
2021/06/16 12:39:00;;;;;;;7.60;3.30;;;32.60;36.60;;;;;;5008746;28;20057;-48
2021/06/16 12:41:36;;;;;;;9.73;6.47;;;32.50;37.10;;;;;;5019868;28;20051;-51
2021/06/16 12:44:16;;;;;;;10.25;6.97;;;32.40;37.60;;;;;;5007363;28;20049;-47
2021/06/16 12:47:12;;;;;;;10.85;7.93;;;32.30;37.90;;;;;;5021050;28;20053;-50
2021/06/16 12:49:51;;;;;;;5.80;2.85;;;32.50;38.70;;;;;;5026701;28;20533;-49
2021/06/16 12:52:38;;;;;;;9.93;5.55;;;32.70;38.00;;;;;;5015577;28;20779;-50
2021/06/16 12:55:11;;;;;;;9.25;6.25;;;32.90;38.00;;;;;;5020021;28;20049;-52
2021/06/16 12:57:48;;;;;;;8.60;2.85;;;32.90;38.00;;;;;;5022824;28;20107;-48
2021/06/16 13:00:27;;;;;;;6.60;4.18;;;32.90;37.00;;;;;;5019311;28;20133;-47
2021/06/16 13:02:54;;;;;;;5.10;2.30;;;32.80;38.50;;;;;;5014010;28;20050;-57
2021/06/16 13:05:28;;;;;;;8.30;4.63;;;33.10;37.50;;;;;;5018903;28;20044;-51
2021/06/16 13:08:03;;;;;;;5.63;2.97;;;33.00;36.40;;;;;;5033517;28;20120;-49